Time;durP1;ratioP1;P1;durP2;ratioP2;P2;SDS_P1;SDS_P2;PMS_P1;PMS_P2;Temp;Humidity;BMP_temperature;BMP_pressure;BME280_temperature;BME280_humidity;BME280_pressure;Samples;Min_cycle;Max_cycle;Signal;HPM_P1;HPM_P2
2024/01/10 00:00:16;;;;;;;45.40;20.02;;;;;;;-3.67;73.59;93149.50;2047930;70;20143;-80
2024/01/10 00:02:41;;;;;;;42.10;19.00;;;;;;;-3.66;74.31;93151.03;2047892;70;20233;-83
2024/01/10 00:05:07;;;;;;;43.78;20.42;;;;;;;-3.66;73.92;93154.53;2048589;70;20163;-86
2024/01/10 00:07:33;;;;;;;39.08;18.83;;;;;;;-3.68;74.34;93148.03;2048111;70;20155;-78
2024/01/10 00:10:01;;;;;;;45.45;19.77;;;;;;;-3.71;73.72;93151.78;2048052;70;20153;-82
2024/01/10 00:12:33;;;;;;;37.78;18.85;;;;;;;-3.76;74.27;93141.56;2047450;70;20205;-81
2024/01/10 00:14:58;;;;;;;44.78;19.23;;;;;;;-3.72;74.22;93150.28;2048325;70;20137;-79
2024/01/10 00:17:25;;;;;;;41.50;18.15;;;;;;;-3.71;73.92;93138.78;2048306;70;20597;-84
2024/01/10 00:19:51;;;;;;;40.05;18.75;;;;;;;-3.67;73.80;93144.75;2048197;70;20291;-82
2024/01/10 00:22:16;;;;;;;40.95;19.65;;;;;;;-3.74;74.89;93150.06;2050309;70;20349;-80
2024/01/10 00:24:42;;;;;;;45.35;19.45;;;;;;;-3.77;74.71;93142.81;2047458;70;20150;-78
2024/01/10 00:27:08;;;;;;;41.42;18.70;;;;;;;-3.66;74.03;93143.53;2047340;70;20193;-78
2024/01/10 00:29:33;;;;;;;43.95;18.90;;;;;;;-3.66;74.44;93138.03;2048673;70;20150;-80
2024/01/10 00:32:00;;;;;;;47.70;19.85;;;;;;;-3.66;74.25;93134.53;2047819;70;20254;-78
2024/01/10 00:34:26;;;;;;;47.45;19.92;;;;;;;-3.59;74.36;93133.97;2047602;70;20224;-79
2024/01/10 00:36:52;;;;;;;37.60;17.65;;;;;;;-3.53;74.09;93136.69;2047661;70;20213;-78
2024/01/10 00:39:17;;;;;;;43.28;19.70;;;;;;;-3.58;74.12;93130.69;2047864;70;20324;-80
2024/01/10 00:41:43;;;;;;;37.70;18.50;;;;;;;-3.45;74.30;93143.91;2045050;70;20159;-78
2024/01/10 00:44:09;;;;;;;37.90;16.85;;;;;;;-3.42;74.09;93148.38;2047946;70;20507;-79
2024/01/10 00:46:34;;;;;;;35.03;16.83;;;;;;;-3.71;76.41;93146.28;2047767;70;20169;-78
2024/01/10 00:49:00;;;;;;;38.28;17.55;;;;;;;-3.37;74.23;93144.84;2047871;70;20139;-78
2024/01/10 00:51:25;;;;;;;38.53;18.05;;;;;;;-3.35;73.97;93155.34;2048124;70;20222;-79
2024/01/10 00:53:51;;;;;;;41.22;18.98;;;;;;;-3.34;74.44;93157.59;2048158;70;20188;-78
2024/01/10 00:56:16;;;;;;;44.38;18.73;;;;;;;-3.24;73.59;93163.56;2047681;70;20159;-78
2024/01/10 00:58:42;;;;;;;47.00;19.67;;;;;;;-3.26;74.25;93163.31;2047237;70;20166;-78
2024/01/10 01:01:08;;;;;;;39.80;18.80;;;;;;;-3.24;73.90;93160.78;2050009;70;20189;-78
2024/01/10 01:03:33;;;;;;;43.85;20.05;;;;;;;-3.24;74.25;93169.06;2047506;70;20178;-78
2024/01/10 01:05:59;;;;;;;45.17;20.45;;;;;;;-3.37;74.75;93172.38;2047005;70;20167;-78
2024/01/10 01:08:25;;;;;;;45.25;20.60;;;;;;;-3.17;73.68;93173.25;2047814;70;20139;-78
2024/01/10 01:10:50;;;;;;;42.30;20.20;;;;;;;-3.24;74.45;93171.81;2048442;70;20241;-79
2024/01/10 01:13:16;;;;;;;38.72;18.98;;;;;;;-3.17;74.11;93165.75;2048058;70;20150;-79
2024/01/10 01:15:43;;;;;;;40.38;19.73;;;;;;;-3.19;74.50;93173.03;2047614;70;20154;-80
2024/01/10 01:18:12;;;;;;;44.72;20.70;;;;;;;-3.31;75.16;93161.34;2047857;70;20142;-80
2024/01/10 01:20:39;;;;;;;43.38;21.10;;;;;;;-3.34;75.60;93174.13;2048145;70;20586;-80
2024/01/10 01:23:05;;;;;;;42.33;20.42;;;;;;;-3.10;75.36;93181.75;2047935;70;20142;-79
2024/01/10 01:25:30;;;;;;;38.85;18.08;;;;;;;-3.12;75.42;93184.25;2047786;70;20511;-78
2024/01/10 01:27:56;;;;;;;36.63;18.20;;;;;;;-3.01;75.27;93180.69;2048126;70;20673;-80
2024/01/10 01:30:23;;;;;;;44.28;20.00;;;;;;;-2.88;74.65;93193.88;2048244;70;20159;-81
2024/01/10 01:32:48;;;;;;;40.80;19.95;;;;;;;-2.85;75.17;93181.81;2048180;70;20138;-81
2024/01/10 01:35:15;;;;;;;39.05;19.20;;;;;;;-2.74;74.59;93183.75;2047894;70;20514;-80
2024/01/10 01:37:41;;;;;;;40.88;19.55;;;;;;;-2.72;74.10;93181.22;2048204;70;20234;-80
2024/01/10 01:40:07;;;;;;;37.28;17.77;;;;;;;-2.70;74.51;93181.44;2048167;70;20571;-80
2024/01/10 01:42:33;;;;;;;36.42;18.42;;;;;;;-2.61;74.34;93181.13;2047953;70;20155;-80
2024/01/10 01:44:58;;;;;;;32.67;16.85;;;;;;;-2.64;75.13;93180.16;2048151;70;20145;-79
2024/01/10 01:47:24;;;;;;;34.83;16.38;;;;;;;-2.69;75.90;93180.19;2046054;70;20176;-79
2024/01/10 01:49:50;;;;;;;29.75;15.10;;;;;;;-2.69;76.35;93178.19;2044630;70;20667;-77
2024/01/10 01:52:15;;;;;;;31.45;15.77;;;;;;;-2.54;75.85;93182.56;2046950;70;20150;-78
2024/01/10 01:54:41;;;;;;;32.30;15.95;;;;;;;-2.57;74.75;93181.59;2048201;70;20246;-78
2024/01/10 01:57:11;;;;;;;34.58;17.08;;;;;;;-2.57;74.91;93182.34;2047625;70;20526;-79
2024/01/10 01:59:37;;;;;;;37.50;18.40;;;;;;;-2.50;75.27;93180.28;2048156;70;20151;-78
2024/01/10 02:02:04;;;;;;;34.47;17.40;;;;;;;-2.56;75.27;93181.09;2048408;70;20139;-79
2024/01/10 02:04:31;;;;;;;35.28;16.45;;;;;;;-2.48;75.69;93181.25;2050336;70;20166;-79
2024/01/10 02:06:57;;;;;;;34.22;16.35;;;;;;;-2.54;75.89;93177.81;2048052;70;20147;-78
2024/01/10 02:09:23;;;;;;;34.47;17.10;;;;;;;-2.44;75.26;93175.47;2048161;70;20530;-79
2024/01/10 02:11:49;;;;;;;32.22;15.65;;;;;;;-2.38;74.30;93181.69;2047461;70;20143;-78
2024/01/10 02:14:16;;;;;;;33.70;16.17;;;;;;;-2.38;74.76;93174.16;2048171;70;20661;-78
2024/01/10 02:16:42;;;;;;;35.03;15.63;;;;;;;-2.41;75.64;93174.44;2046533;70;20591;-78
2024/01/10 02:19:37;;;;;;;32.58;15.07;;;;;;;-2.34;74.81;93163.59;2044674;70;20278;-78
2024/01/10 02:22:04;;;;;;;34.50;15.15;;;;;;;-2.38;75.72;93156.88;2042108;70;20155;-78
2024/01/10 02:24:30;;;;;;;28.70;14.23;;;;;;;-2.36;75.79;93162.63;2044740;70;20206;-78
2024/01/10 02:26:56;;;;;;;31.92;14.93;;;;;;;-2.30;75.11;93149.50;2044164;70;20567;-78
2024/01/10 02:29:23;;;;;;;28.17;13.73;;;;;;;-2.33;73.48;93142.28;2044701;70;20186;-78
2024/01/10 02:31:49;;;;;;;28.10;13.10;;;;;;;-2.28;75.30;93138.72;2047658;70;20147;-79
2024/01/10 02:34:15;;;;;;;28.20;13.27;;;;;;;-2.45;74.94;93122.34;2048084;70;20147;-79
2024/01/10 02:36:41;;;;;;;27.73;13.35;;;;;;;-2.34;75.41;93136.03;2047983;70;20147;-78
2024/01/10 02:39:06;;;;;;;28.77;13.90;;;;;;;-2.27;75.17;93137.44;2047597;70;20261;-78
2024/01/10 02:41:32;;;;;;;29.83;14.55;;;;;;;-2.38;74.71;93134.81;2047830;70;20614;-78
2024/01/10 02:43:59;;;;;;;33.60;15.07;;;;;;;-2.30;75.42;93139.22;2048004;70;20202;-79
2024/01/10 02:46:27;;;;;;;30.80;15.27;;;;;;;-2.29;74.31;93137.22;2047473;70;20154;-78
2024/01/10 02:48:55;;;;;;;30.55;15.77;;;;;;;-2.55;76.20;93146.00;2047965;70;20211;-78
2024/01/10 02:51:21;;;;;;;30.85;14.75;;;;;;;-2.58;77.14;93152.53;2045859;70;20246;-78
2024/01/10 02:53:47;;;;;;;32.35;15.50;;;;;;;-2.68;77.26;93148.63;2048047;70;20181;-78
2024/01/10 02:56:12;;;;;;;28.75;14.20;;;;;;;-2.77;78.12;93144.19;2047991;70;20511;-78
2024/01/10 02:58:40;;;;;;;29.92;14.30;;;;;;;-2.89;78.15;93151.78;2047922;70;20177;-78
2024/01/10 03:01:06;;;;;;;27.90;13.80;;;;;;;-2.71;78.59;93163.41;2047423;70;20157;-79
2024/01/10 03:03:32;;;;;;;26.17;13.25;;;;;;;-2.51;77.86;93160.25;2048003;70;20131;-78
2024/01/10 03:05:57;;;;;;;26.23;13.55;;;;;;;-2.43;76.98;93157.66;2048094;70;20162;-77
2024/01/10 03:08:23;;;;;;;24.45;12.07;;;;;;;-2.43;77.66;93155.66;2047674;70;20222;-79
2024/01/10 03:10:51;;;;;;;22.23;11.13;;;;;;;-2.34;76.79;93147.06;2047563;70;20143;-77
2024/01/10 03:13:17;;;;;;;22.58;11.52;;;;;;;-2.34;76.29;93149.81;2048234;70;20146;-77
2024/01/10 03:15:43;;;;;;;21.30;10.82;;;;;;;-2.40;76.27;93143.59;2048023;70;20135;-78
2024/01/10 03:18:08;;;;;;;26.38;11.38;;;;;;;-2.34;76.07;93141.53;2048184;70;20527;-78
2024/01/10 03:20:34;;;;;;;22.23;10.85;;;;;;;-2.61;76.50;93142.56;2048099;70;20150;-78
2024/01/10 03:22:59;;;;;;;23.45;11.30;;;;;;;-2.58;77.10;93149.78;2047980;70;20526;-79
2024/01/10 03:25:25;;;;;;;23.65;11.98;;;;;;;-2.50;76.77;93147.22;2047940;70;20599;-78
2024/01/10 03:27:51;;;;;;;25.27;11.85;;;;;;;-2.49;76.17;93146.69;2047712;70;20246;-78
2024/01/10 03:30:18;;;;;;;23.58;11.80;;;;;;;-2.70;77.52;93148.38;2047807;70;20158;-78
2024/01/10 03:32:43;;;;;;;24.20;12.15;;;;;;;-2.69;77.18;93138.84;2048104;70;20253;-77
2024/01/10 03:35:09;;;;;;;27.08;12.13;;;;;;;-2.93;77.23;93140.31;2048025;70;20183;-78
2024/01/10 03:37:35;;;;;;;23.80;12.23;;;;;;;-2.68;77.92;93146.59;2048047;70;20598;-79
2024/01/10 03:40:00;;;;;;;24.55;11.35;;;;;;;-2.61;76.16;93129.50;2050094;70;20142;-79
2024/01/10 03:42:27;;;;;;;25.13;11.40;;;;;;;-2.53;76.14;93143.47;2047890;70;20198;-78
2024/01/10 03:44:53;;;;;;;22.48;11.07;;;;;;;-2.58;76.53;93138.75;2047928;70;20165;-78
2024/01/10 03:47:19;;;;;;;23.58;11.88;;;;;;;-2.66;76.76;93146.06;2047912;70;20595;-79
2024/01/10 03:49:46;;;;;;;23.33;11.25;;;;;;;-2.60;77.11;93147.53;2047822;70;20139;-79
2024/01/10 03:52:11;;;;;;;17.27;9.45;;;;;;;-2.56;77.19;93150.03;2046990;70;20174;-79
2024/01/10 03:54:38;;;;;;;13.57;6.70;;;;;;;-2.62;77.42;93150.06;2047621;70;20158;-78
2024/01/10 03:57:05;;;;;;;8.85;5.70;;;;;;;-2.55;77.27;93151.50;2047580;70;20205;-79
2024/01/10 03:59:31;;;;;;;10.15;5.35;;;;;;;-2.50;77.35;93152.72;2047095;70;20189;-78
2024/01/10 04:01:56;;;;;;;15.43;7.57;;;;;;;-2.73;79.05;93146.66;2047571;70;20151;-78
2024/01/10 04:04:22;;;;;;;22.73;11.43;;;;;;;-2.80;79.35;93145.19;2047997;70;20154;-79
2024/01/10 04:06:48;;;;;;;23.50;11.32;;;;;;;-2.88;78.98;93147.03;2047194;70;20190;-77
2024/01/10 04:09:14;;;;;;;21.35;10.82;;;;;;;-2.78;78.57;93142.69;2047666;70;20153;-78
2024/01/10 04:11:39;;;;;;;23.10;10.80;;;;;;;-2.77;77.98;93141.41;2047091;70;20151;-77
2024/01/10 04:14:06;;;;;;;22.98;11.00;;;;;;;-2.69;78.38;93142.34;2047519;70;20209;-77
2024/01/10 04:16:32;;;;;;;22.05;10.52;;;;;;;-2.61;77.28;93131.53;2047362;70;20137;-78
2024/01/10 04:18:58;;;;;;;18.70;9.73;;;;;;;-2.64;77.26;93144.31;2047887;70;20192;-77
2024/01/10 04:21:23;;;;;;;21.88;10.60;;;;;;;-2.88;78.62;93142.25;2047380;70;20154;-77
2024/01/10 04:23:49;;;;;;;22.33;10.38;;;;;;;-2.75;77.78;93146.41;2047628;70;20170;-78
2024/01/10 04:26:17;;;;;;;18.67;9.32;;;;;;;-2.95;77.86;93148.31;2047723;70;20139;-78
2024/01/10 04:28:43;;;;;;;19.30;10.15;;;;;;;-2.99;78.36;93147.09;2047644;70;20619;-78
2024/01/10 04:31:09;;;;;;;21.30;11.23;;;;;;;-3.15;78.47;93148.72;2047857;70;20146;-78
2024/01/10 04:33:35;;;;;;;25.30;10.70;;;;;;;-2.96;78.25;93144.06;2047329;70;20587;-78
2024/01/10 04:36:00;;;;;;;30.23;12.88;;;;;;;-2.93;77.67;93147.78;2047843;70;20143;-77
2024/01/10 04:38:26;;;;;;;21.48;10.98;;;;;;;-3.03;78.21;93157.66;2047537;70;20641;-78
2024/01/10 04:40:52;;;;;;;21.15;10.55;;;;;;;-2.94;77.44;93149.06;2047653;70;20158;-77
2024/01/10 04:43:19;;;;;;;23.23;12.20;;;;;;;-2.93;77.50;93159.59;2047133;70;20178;-79
2024/01/10 04:45:44;;;;;;;27.33;11.88;;;;;;;-2.89;77.33;93151.78;2050899;70;20237;-78
2024/01/10 04:48:10;;;;;;;26.30;12.52;;;;;;;-2.89;76.78;93159.28;2050936;70;20146;-79
2024/01/10 04:50:35;;;;;;;25.23;12.20;;;;;;;-2.91;76.67;93162.56;2050766;70;20534;-79
2024/01/10 04:53:01;;;;;;;22.38;11.27;;;;;;;-2.88;75.72;93158.06;2050758;70;20236;-77
2024/01/10 04:55:27;;;;;;;30.20;13.57;;;;;;;-3.45;78.34;93163.16;2051143;70;20147;-79
2024/01/10 04:57:53;;;;;;;25.58;12.77;;;;;;;-3.10;77.19;93156.19;2045445;70;20150;-78
2024/01/10 05:00:19;;;;;;;29.52;15.02;;;;;;;-3.14;77.93;93155.72;2050495;70;20142;-79
2024/01/10 05:02:45;;;;;;;30.80;14.77;;;;;;;-3.03;77.54;93163.16;2051131;70;20162;-79
2024/01/10 05:05:11;;;;;;;25.83;13.45;;;;;;;-3.00;77.13;93162.13;2050974;70;20243;-78
2024/01/10 05:07:36;;;;;;;29.27;15.20;;;;;;;-3.06;77.24;93173.22;2044211;70;20166;-78
2024/01/10 05:10:02;;;;;;;29.00;15.15;;;;;;;-3.09;77.45;93163.94;2050323;70;20135;-78
2024/01/10 05:12:28;;;;;;;28.58;14.95;;;;;;;-3.44;77.79;93166.66;2050719;70;20845;-78
2024/01/10 05:14:53;;;;;;;25.55;14.55;;;;;;;-3.16;77.63;93170.03;2050822;70;20152;-79
2024/01/10 05:17:19;;;;;;;26.95;13.13;;;;;;;-3.16;77.70;93166.50;2050334;70;20602;-77
2024/01/10 05:19:46;;;;;;;27.38;13.20;;;;;;;-3.21;77.04;93172.78;2051176;70;20242;-79
2024/01/10 05:22:11;;;;;;;28.50;13.05;;;;;;;-3.32;77.92;93174.34;2050747;70;20153;-79
2024/01/10 05:24:37;;;;;;;24.63;12.85;;;;;;;-3.15;78.12;93170.75;2050491;70;20170;-81
2024/01/10 05:27:04;;;;;;;24.70;12.60;;;;;;;-3.10;77.75;93170.72;2049613;70;20154;-79
2024/01/10 05:29:29;;;;;;;29.17;14.13;;;;;;;-3.12;76.98;93175.22;2048523;70;20618;-80
2024/01/10 05:31:55;;;;;;;23.70;12.23;;;;;;;-3.12;76.80;93172.47;2047427;70;20143;-79
2024/01/10 05:34:21;;;;;;;24.02;11.82;;;;;;;-3.13;77.08;93180.00;2047663;70;20507;-80
2024/01/10 05:36:47;;;;;;;23.33;10.95;;;;;;;-3.18;76.53;93171.78;2047040;70;20172;-78
2024/01/10 05:39:15;;;;;;;25.65;12.18;;;;;;;-3.25;76.80;93178.59;2045352;70;20183;-78
2024/01/10 05:41:43;;;;;;;31.58;14.38;;;;;;;-3.29;76.39;93180.13;2044947;70;20607;-79
2024/01/10 05:44:09;;;;;;;32.00;14.23;;;;;;;-3.26;76.27;93182.56;2045128;70;20245;-79
2024/01/10 05:46:34;;;;;;;30.05;13.63;;;;;;;-3.45;76.60;93182.44;2045338;70;20155;-79
2024/01/10 05:49:00;;;;;;;32.28;14.50;;;;;;;-3.76;78.21;93180.06;2049117;70;20194;-79
2024/01/10 05:51:30;;;;;;;36.00;16.70;;;;;;;-3.70;78.91;93181.56;2045865;70;20170;-79
2024/01/10 05:53:58;;;;;;;34.45;15.88;;;;;;;-3.65;79.09;93180.03;2047112;70;20532;-79
2024/01/10 05:56:24;;;;;;;35.67;15.63;;;;;;;-3.49;78.56;93186.72;2043298;70;20226;-77
2024/01/10 05:58:50;;;;;;;28.35;14.40;;;;;;;-3.41;78.04;93188.41;2045532;70;20167;-78
2024/01/10 06:01:17;;;;;;;31.95;15.25;;;;;;;-3.35;77.76;93188.38;2046145;70;20614;-79
2024/01/10 06:03:42;;;;;;;28.10;14.07;;;;;;;-3.39;76.97;93191.44;2047246;70;20176;-79
2024/01/10 06:06:09;;;;;;;29.95;13.13;;;;;;;-3.48;77.40;93199.97;2044400;70;20166;-79
2024/01/10 06:08:35;;;;;;;28.40;14.18;;;;;;;-3.42;76.84;93200.69;2048322;70;20151;-79
2024/01/10 06:11:08;;;;;;;33.22;15.05;;;;;;;-3.37;77.66;93190.91;2047660;70;20155;-78
2024/01/10 06:13:34;;;;;;;31.92;14.80;;;;;;;-3.26;76.96;93196.34;2048940;70;20139;-79
2024/01/10 06:16:00;;;;;;;34.83;16.42;;;;;;;-3.27;77.09;93197.59;2052304;70;20586;-77
2024/01/10 06:18:25;;;;;;;34.60;17.55;;;;;;;-3.29;77.15;93186.38;2050015;70;20230;-78
2024/01/10 06:20:51;;;;;;;27.52;14.23;;;;;;;-3.38;76.96;93186.66;2050784;70;20146;-79
2024/01/10 06:23:17;;;;;;;31.48;15.15;;;;;;;-3.50;77.98;93172.19;2051163;70;20191;-80
2024/01/10 06:25:42;;;;;;;29.50;14.40;;;;;;;-3.35;77.37;93182.88;2049655;70;20150;-78
2024/01/10 06:28:08;;;;;;;29.58;14.60;;;;;;;-3.31;77.22;93199.88;2051303;70;20177;-78
2024/01/10 06:30:35;;;;;;;33.03;15.57;;;;;;;-3.44;78.19;93192.19;2047393;70;20693;-78
2024/01/10 06:33:01;;;;;;;29.25;14.63;;;;;;;-3.33;76.91;93203.16;2047955;70;20257;-79
2024/01/10 06:35:27;;;;;;;29.00;14.57;;;;;;;-3.34;76.70;93198.91;2047243;70;20155;-78
2024/01/10 06:37:52;;;;;;;33.47;15.98;;;;;;;-3.32;76.41;93201.88;2047118;70;20142;-79
2024/01/10 06:40:18;;;;;;;37.78;16.70;;;;;;;-3.29;77.04;93207.66;2045117;70;20162;-80
2024/01/10 06:42:44;;;;;;;30.83;15.45;;;;;;;-3.35;77.05;93207.66;2046423;70;20949;-79
2024/01/10 06:45:11;;;;;;;42.33;17.35;;;;;;;-3.27;76.59;93219.63;2048361;70;20234;-79
2024/01/10 06:47:37;;;;;;;34.80;16.98;;;;;;;-3.16;75.72;93222.34;2046658;70;20177;-78
2024/01/10 06:50:12;;;;;;;33.03;16.20;;;;;;;-3.28;77.25;93226.41;2046259;70;20590;-80
2024/01/10 06:52:37;;;;;;;33.40;16.38;;;;;;;-3.26;76.82;93226.63;2045673;70;20268;-79
2024/01/10 06:55:04;;;;;;;36.85;16.70;;;;;;;-3.51;76.58;93228.53;2045611;70;20551;-80
2024/01/10 06:57:30;;;;;;;36.35;15.90;;;;;;;-3.60;77.45;93223.31;2045906;70;20152;-78
2024/01/10 06:59:55;;;;;;;34.47;14.77;;;;;;;-3.56;76.95;93237.56;2046428;70;20530;-78
2024/01/10 07:02:23;;;;;;;32.40;15.50;;;;;;;-3.50;77.03;93232.00;2045778;70;20329;-78
2024/01/10 07:04:49;;;;;;;31.90;15.57;;;;;;;-3.46;77.00;93230.50;2048107;70;20625;-77
2024/01/10 07:07:17;;;;;;;41.55;16.50;;;;;;;-3.38;76.83;93222.47;2048156;70;20150;-79
2024/01/10 07:09:42;;;;;;;44.20;20.92;;;;;;;-3.42;76.80;93225.47;2047591;70;20522;-78
2024/01/10 07:12:08;;;;;;;49.58;22.52;;;;;;;-3.35;77.00;93235.19;2047000;70;20626;-79
2024/01/10 07:14:33;;;;;;;54.38;24.73;;;;;;;-3.34;77.15;93231.19;2047404;70;20190;-79
2024/01/10 07:16:59;;;;;;;48.13;23.70;;;;;;;-3.30;77.07;93236.41;2046720;70;20669;-80
2024/01/10 07:19:26;;;;;;;53.88;24.15;;;;;;;-3.29;76.72;93229.69;2047080;70;20210;-80
2024/01/10 07:21:54;;;;;;;49.85;23.05;;;;;;;-3.30;76.64;93239.91;2045712;70;20217;-80
2024/01/10 07:24:19;;;;;;;39.45;19.77;;;;;;;-3.26;76.55;93243.16;2046539;70;20598;-78
2024/01/10 07:26:45;;;;;;;37.20;19.05;;;;;;;-3.19;76.30;93245.38;2046160;70;20154;-78
2024/01/10 07:29:10;;;;;;;39.90;19.10;;;;;;;-3.18;76.41;93246.88;2046334;70;20639;-79
2024/01/10 07:31:36;;;;;;;38.50;19.08;;;;;;;-3.26;76.31;93251.41;2046347;70;20255;-78
2024/01/10 07:34:04;;;;;;;42.75;20.40;;;;;;;-3.29;76.22;93249.69;2046140;70;20153;-76
2024/01/10 07:36:33;;;;;;;42.08;19.27;;;;;;;-3.25;76.12;93260.44;2046019;70;20166;-79
2024/01/10 07:38:59;;;;;;;40.38;21.05;;;;;;;-3.26;76.18;93253.44;2045927;70;20254;-78
2024/01/10 07:41:25;;;;;;;38.92;20.85;;;;;;;-3.33;76.87;93258.22;2046613;70;20229;-79
2024/01/10 07:43:51;;;;;;;46.00;21.15;;;;;;;-3.27;76.22;93260.94;2046515;70;20155;-83
2024/01/10 07:46:17;;;;;;;95.65;33.83;;;;;;;-3.35;76.93;93259.97;2046075;70;20139;-78
2024/01/10 07:48:42;;;;;;;213.98;58.45;;;;;;;-3.29;76.75;93276.50;2046170;70;20194;-83
2024/01/10 07:51:08;;;;;;;162.80;49.55;;;;;;;-3.20;76.78;93276.19;2045249;70;20652;-81
2024/01/10 07:53:34;;;;;;;139.55;44.08;;;;;;;-3.14;76.89;93277.66;2045821;70;20157;-78
2024/01/10 07:56:00;;;;;;;139.40;44.47;;;;;;;-3.05;76.84;93279.38;2045061;70;20155;-77
2024/01/10 07:58:25;;;;;;;118.70;39.95;;;;;;;-2.94;76.80;93284.06;2046250;70;20166;-79
2024/01/10 08:00:51;;;;;;;113.35;40.25;;;;;;;-2.88;77.00;93285.53;2046142;70;20222;-77
2024/01/10 08:03:16;;;;;;;122.70;45.38;;;;;;;-2.81;76.46;93289.75;2046234;70;20147;-77
2024/01/10 08:05:43;;;;;;;128.05;48.03;;;;;;;-2.73;76.80;93298.97;2046314;70;20163;-79
2024/01/10 08:08:09;;;;;;;125.30;45.65;;;;;;;-2.69;77.10;93295.97;2047413;70;20605;-79
2024/01/10 08:10:35;;;;;;;124.18;44.40;;;;;;;-2.63;77.19;93305.69;2047525;70;20610;-77
2024/01/10 08:13:00;;;;;;;98.03;39.08;;;;;;;-2.54;77.32;93301.88;2046967;70;20238;-78
2024/01/10 08:15:26;;;;;;;85.18;36.78;;;;;;;-2.51;76.92;93294.59;2047056;70;20157;-78
2024/01/10 08:17:52;;;;;;;83.10;35.67;;;;;;;-2.36;74.68;93304.00;2047133;70;20249;-78
2024/01/10 08:20:20;;;;;;;70.03;28.08;;;;;;;-3.02;77.13;93300.41;2046959;70;20262;-78
2024/01/10 08:22:47;;;;;;;49.45;22.33;;;;;;;-2.60;77.28;93285.38;2047089;70;20162;-79
2024/01/10 08:25:15;;;;;;;55.33;24.45;;;;;;;-2.28;76.84;93303.47;2047317;70;20305;-78
2024/01/10 08:27:41;;;;;;;62.13;27.80;;;;;;;-2.18;76.82;93307.38;2047889;70;20150;-78
2024/01/10 08:30:09;;;;;;;64.18;28.98;;;;;;;-2.09;76.20;93310.56;2047972;70;20146;-78
2024/01/10 08:32:36;;;;;;;51.63;24.23;;;;;;;-2.06;75.30;93311.56;2047971;70;20238;-77
2024/01/10 08:35:04;;;;;;;47.67;22.80;;;;;;;-2.00;75.54;93312.25;2047936;70;20155;-77
2024/01/10 08:37:30;;;;;;;53.25;24.45;;;;;;;-1.96;75.30;93312.72;2047955;70;20139;-78
2024/01/10 08:40:00;;;;;;;57.10;24.88;;;;;;;-1.86;75.34;93315.91;2047953;70;20147;-77
2024/01/10 08:42:25;;;;;;;61.08;28.25;;;;;;;-1.74;75.27;93317.31;2047821;70;20201;-78
2024/01/10 08:44:51;;;;;;;60.55;28.77;;;;;;;-1.74;74.72;93320.06;2047368;70;20147;-80
2024/01/10 08:47:16;;;;;;;58.78;28.55;;;;;;;-1.64;74.67;93326.00;2047917;70;20170;-79
2024/01/10 08:49:42;;;;;;;61.58;29.20;;;;;;;-1.50;74.18;93327.63;2048024;70;20226;-77
2024/01/10 08:52:08;;;;;;;63.67;29.58;;;;;;;-1.57;73.71;93306.81;2047893;70;20504;-77
2024/01/10 08:54:33;;;;;;;59.78;30.17;;;;;;;-1.37;74.20;93330.50;2048217;70;20151;-78
2024/01/10 08:57:00;;;;;;;56.10;27.63;;;;;;;-1.37;74.19;93332.50;2047925;70;20147;-78
2024/01/10 08:59:27;;;;;;;55.38;25.85;;;;;;;-1.27;72.97;93343.97;2047888;70;20143;-77
2024/01/10 09:01:53;;;;;;;53.80;25.23;;;;;;;-1.11;73.85;93335.47;2047945;70;20634;-78
2024/01/10 09:04:19;;;;;;;50.97;24.67;;;;;;;-1.05;74.48;93338.94;2047822;70;20237;-78
2024/01/10 09:06:45;;;;;;;52.28;25.70;;;;;;;-1.36;76.05;93339.53;2047943;70;20158;-80
2024/01/10 09:09:12;;;;;;;46.97;23.85;;;;;;;-1.07;74.93;93335.19;2047414;70;20670;-78
2024/01/10 09:11:38;;;;;;;46.42;24.42;;;;;;;-0.91;74.97;93333.50;2047910;70;20139;-78
2024/01/10 09:14:05;;;;;;;40.63;22.83;;;;;;;-0.69;74.75;93335.22;2047898;70;20146;-79
2024/01/10 09:16:31;;;;;;;50.08;24.67;;;;;;;-0.62;73.74;93335.38;2047932;70;20142;-81
2024/01/10 09:18:57;;;;;;;40.15;22.50;;;;;;;-0.51;72.99;93334.47;2047337;70;20141;-80
2024/01/10 09:21:24;;;;;;;44.00;23.83;;;;;;;-0.30;72.94;93335.44;2047961;70;20147;-79
2024/01/10 09:23:51;;;;;;;44.83;24.48;;;;;;;-0.24;73.30;93343.66;2047888;70;20131;-79
2024/01/10 09:26:18;;;;;;;47.58;24.02;;;;;;;-0.05;72.70;93338.84;2047733;70;20143;-79
2024/01/10 09:28:43;;;;;;;50.03;25.50;;;;;;;-0.06;72.69;93340.13;2048382;70;20143;-78
2024/01/10 09:31:09;;;;;;;44.85;25.23;;;;;;;0.28;72.09;93345.16;2048368;70;20238;-80
2024/01/10 09:33:35;;;;;;;48.30;24.63;;;;;;;0.54;72.59;93336.13;2048294;70;20157;-79
2024/01/10 09:36:00;;;;;;;46.13;25.38;;;;;;;0.72;72.38;93326.97;2048308;70;20143;-82
2024/01/10 09:38:27;;;;;;;54.45;27.17;;;;;;;0.69;71.48;93333.59;2048530;70;20577;-81
2024/01/10 09:41:01;;;;;;;47.65;25.80;;;;;;;0.85;71.55;93322.75;2047929;70;20149;-83
2024/01/10 09:43:27;;;;;;;50.42;27.33;;;;;;;0.73;72.01;93336.03;2048342;70;20174;-83
2024/01/10 09:45:54;;;;;;;46.72;25.98;;;;;;;0.90;71.48;93330.94;2048762;70;20174;-78
2024/01/10 09:48:20;;;;;;;51.90;27.67;;;;;;;0.74;70.44;93332.00;2047811;70;20150;-78
2024/01/10 09:50:50;;;;;;;51.90;28.10;;;;;;;0.69;71.17;93333.59;2048263;70;20191;-81
2024/01/10 09:53:31;;;;;;;52.15;28.20;;;;;;;1.00;70.96;93329.22;2048502;70;20693;-79
2024/01/10 09:55:59;;;;;;;54.95;26.40;;;;;;;1.12;70.41;93332.53;2047766;70;20628;-81
2024/01/10 09:58:26;;;;;;;52.88;29.48;;;;;;;1.24;69.92;93335.84;2048265;70;20147;-82
2024/01/10 10:00:52;;;;;;;57.90;30.85;;;;;;;1.40;69.41;93331.22;2047774;70;20222;-80
2024/01/10 10:03:18;;;;;;;63.75;31.85;;;;;;;1.57;68.41;93331.63;2048204;70;20142;-79
2024/01/10 10:05:44;;;;;;;61.78;31.90;;;;;;;1.71;68.47;93330.31;2048300;70;20238;-78
2024/01/10 10:08:13;;;;;;;62.50;31.80;;;;;;;1.86;68.20;93334.53;2048306;70;20171;-78
2024/01/10 10:10:44;;;;;;;57.72;30.98;;;;;;;1.83;68.06;93338.38;2048333;70;20157;-79
2024/01/10 10:13:29;;;;;;;59.03;32.65;;;;;;;2.04;68.23;93328.81;2048293;70;20139;-80
2024/01/10 10:16:02;;;;;;;54.08;30.05;;;;;;;2.39;67.71;93328.78;2048382;70;20155;-81
2024/01/10 10:18:29;;;;;;;51.42;29.25;;;;;;;2.42;66.89;93325.63;2047654;70;20193;-79
2024/01/10 10:21:11;;;;;;;54.05;28.42;;;;;;;2.62;66.86;93323.41;2048244;70;20177;-79
2024/01/10 10:23:38;;;;;;;46.90;26.02;;;;;;;2.71;66.83;93322.91;2048165;70;20488;-79
2024/01/10 10:26:20;;;;;;;42.00;24.77;;;;;;;2.24;67.06;93323.81;2047540;70;20237;-78
2024/01/10 10:28:47;;;;;;;36.00;19.73;;;;;;;1.62;67.59;93322.44;2048174;70;20185;-79
2024/01/10 10:31:14;;;;;;;33.45;19.88;;;;;;;2.67;67.10;93325.28;2044904;70;20150;-80
2024/01/10 10:33:40;;;;;;;32.05;19.45;;;;;;;2.37;67.18;93323.72;2048217;70;20197;-78
2024/01/10 10:36:06;;;;;;;31.10;17.77;;;;;;;2.84;65.85;93317.25;2048196;70;20531;-79
2024/01/10 10:38:32;;;;;;;30.20;18.48;;;;;;;3.44;65.39;93318.91;2048110;70;20157;-78
2024/01/10 10:40:59;;;;;;;33.95;20.60;;;;;;;3.92;63.38;93321.31;2048171;70;20146;-77
2024/01/10 10:43:25;;;;;;;38.30;22.55;;;;;;;4.04;62.76;93323.19;2047554;70;20170;-79
2024/01/10 10:45:51;;;;;;;51.08;29.55;;;;;;;4.18;61.95;93323.78;2048158;70;20622;-78
2024/01/10 10:48:22;;;;;;;69.95;39.40;;;;;;;4.77;62.27;93326.44;2048046;70;20134;-79
2024/01/10 10:51:15;;;;;;;72.85;39.85;;;;;;;5.52;59.42;93329.69;2048134;70;20303;-78
2024/01/10 10:53:45;;;;;;;60.55;35.33;;;;;;;5.76;59.35;93328.28;2048086;70;20146;-77
2024/01/10 10:56:12;;;;;;;47.45;28.58;;;;;;;5.77;58.09;93326.22;2048051;70;20150;-77
2024/01/10 10:58:40;;;;;;;44.88;27.83;;;;;;;6.06;57.49;93326.72;2048068;70;20571;-77
2024/01/10 11:01:06;;;;;;;45.45;28.15;;;;;;;6.23;57.61;93329.59;2048206;70;20155;-77
2024/01/10 11:03:37;;;;;;;49.78;29.20;;;;;;;6.67;56.79;93326.34;2048177;70;20189;-77
2024/01/10 11:06:04;;;;;;;48.13;28.85;;;;;;;6.70;55.50;93318.88;2048236;70;20523;-77
2024/01/10 11:08:42;;;;;;;33.70;21.48;;;;;;;5.58;56.26;93335.78;2047590;70;20138;-77
2024/01/10 11:11:33;;;;;;;54.53;30.15;;;;;;;6.51;54.46;93322.16;2044736;70;20146;-77
2024/01/10 11:14:08;;;;;;;38.53;25.13;;;;;;;6.81;55.53;93327.53;2046206;70;20594;-77
2024/01/10 11:17:18;;;;;;;43.60;27.58;;;;;;;7.58;54.81;93329.63;2047458;70;20146;-78